Aviation Digital Data Service (ADDS)

Output produced by METARs form (0007 UTC 23 December 2014)
found at http://aviationweather.gov/adds/metars/
 
KSLK 222320Z 2300/2324 VRB03KT P6SM OVC025 
     FM230600 15005KT 6SM -FZDZSN SCT007 OVC020 
     FM231000 14006KT 5SM -SNRA OVC028 
     FM231400 14008KT 3SM -RA BR OVC020 WS020/18035KT